PWSweather.com
Personal Weather Stations
Station Observations
PWSLORIS
The Farm At Fox Bay, Loris, SC 29569

The Farm At Fox BayLoris, SC 29569

Lat: 34.067097, Lon: -78.86907

Elevation: 108

Station Type: Davis Vantage Pro2 with 24 hr. FARS and solar

http://www.lorisweather.com

High Low Average
Temperature 89.2°F31.8°C 72.4°F22.4°C 80.2°F26.8°C
Dew Point 80.3°F26.8°C 70.5°F21.4°C 75.5°F24.2°C
Winds 9.2 mph 14.8 kmh Calm Calm 1.0 mph S1.6 kmh S
Wind Gusts 11.5 mph18.5 kmh -- 2.0 mph3.2 kmh
Humidity 98% 59% 86%
Pressure 30.09 in1019.0 mb 30.00 in1015.9 mb -
Precipitation 0.03 in0.8 mm - -
Hour Temp Dew Point Humidity Winds Wind Gusts Pressure Precip Precip Rate Daily Precip Total
12:00 AM 77.5°F25.3°C 75.6°F24.2°C 94% Calm Calm -- 30.03 in1016.9 mb - 0.00 in0.0 mm 0.00 in0.0 mm
12:15 AM 77.1°F25.1°C 75.3°F24.1°C 94% Calm Calm -- 30.02 in1016.6 mb - 0.00 in0.0 mm 0.00 in0.0 mm
12:30 AM 76.9°F24.9°C 75.4°F24.1°C 95% Calm Calm -- 30.02 in1016.6 mb - 0.00 in0.0 mm 0.00 in0.0 mm
12:45 AM 76.6°F24.8°C 75.4°F24.1°C 96% Calm Calm -- 30.02 in1016.6 mb - 0.00 in0.0 mm 0.00 in0.0 mm
01:00 AM 76.2°F24.6°C 75.0°F23.9°C 96% Calm Calm -- 30.02 in1016.6 mb - 0.00 in0.0 mm 0.00 in0.0 mm
01:15 AM 75.9°F24.4°C 74.7°F23.7°C 96% Calm Calm -- 30.02 in1016.6 mb - 0.00 in0.0 mm 0.00 in0.0 mm
01:30 AM 75.7°F24.3°C 74.8°F23.8°C 97% Calm Calm -- 30.02 in1016.6 mb - 0.00 in0.0 mm 0.00 in0.0 mm
01:45 AM 75.5°F24.2°C 74.6°F23.7°C 97% Calm Calm -- 30.01 in1016.3 mb - 0.00 in0.0 mm 0.00 in0.0 mm
02:00 AM 75.3°F24.1°C 74.4°F23.6°C 97% Calm Calm -- 30.01 in1016.3 mb - 0.00 in0.0 mm 0.00 in0.0 mm
02:15 AM 75.1°F23.9°C 74.2°F23.4°C 97% Calm Calm -- 30.00 in1015.9 mb - 0.00 in0.0 mm 0.00 in0.0 mm
02:30 AM 74.9°F23.8°C 74.0°F23.3°C 97% Calm Calm -- 30.00 in1015.9 mb - 0.00 in0.0 mm 0.00 in0.0 mm
02:45 AM 74.9°F23.8°C 74.0°F23.3°C 97% Calm Calm -- 30.00 in1015.9 mb - 0.00 in0.0 mm 0.00 in0.0 mm
03:00 AM 75.0°F23.9°C 74.4°F23.6°C 98% Calm Calm -- 30.01 in1016.3 mb - 0.00 in0.0 mm 0.00 in0.0 mm
03:15 AM 75.4°F24.1°C 74.8°F23.8°C 98% Calm Calm -- 30.00 in1015.9 mb - 0.00 in0.0 mm 0.00 in0.0 mm
03:30 AM 75.1°F23.9°C 74.5°F23.6°C 98% Calm Calm -- 30.00 in1015.9 mb - 0.00 in0.0 mm 0.00 in0.0 mm
03:45 AM 75.1°F23.9°C 74.5°F23.6°C 98% Calm Calm -- 30.00 in1015.9 mb - 0.00 in0.0 mm 0.00 in0.0 mm
04:00 AM 74.8°F23.8°C 74.2°F23.4°C 98% Calm Calm -- 30.00 in1015.9 mb - 0.00 in0.0 mm 0.00 in0.0 mm
04:15 AM 74.9°F23.8°C 74.3°F23.5°C 98% Calm Calm -- 30.00 in1015.9 mb - 0.00 in0.0 mm 0.00 in0.0 mm
04:30 AM 74.7°F23.7°C 74.1°F23.4°C 98% Calm Calm -- 30.00 in1015.9 mb - 0.00 in0.0 mm 0.00 in0.0 mm
04:45 AM 74.4°F23.6°C 73.8°F23.2°C 98% Calm Calm -- 30.00 in1015.9 mb - 0.00 in0.0 mm 0.00 in0.0 mm
05:00 AM 74.0°F23.3°C 73.4°F23.0°C 98% Calm Calm -- 30.00 in1015.9 mb - 0.00 in0.0 mm 0.00 in0.0 mm
05:15 AM 73.9°F23.3°C 73.3°F22.9°C 98% Calm Calm -- 30.01 in1016.3 mb - 0.00 in0.0 mm 0.00 in0.0 mm
05:30 AM 74.1°F23.4°C 73.5°F23.1°C 98% Calm Calm -- 30.01 in1016.3 mb - 0.00 in0.0 mm 0.00 in0.0 mm
05:45 AM 74.4°F23.6°C 73.8°F23.2°C 98% Calm Calm -- 30.02 in1016.6 mb - 0.00 in0.0 mm 0.00 in0.0 mm
06:00 AM 74.5°F23.6°C 73.9°F23.3°C 98% Calm Calm -- 30.02 in1016.6 mb - 0.00 in0.0 mm 0.00 in0.0 mm
06:15 AM 74.2°F23.4°C 73.6°F23.1°C 98% Calm Calm -- 30.03 in1016.9 mb - 0.00 in0.0 mm 0.00 in0.0 mm
06:30 AM 74.3°F23.5°C 73.7°F23.2°C 98% Calm Calm -- 30.04 in1017.3 mb - 0.00 in0.0 mm 0.00 in0.0 mm
06:45 AM 74.8°F23.8°C 74.2°F23.4°C 98% Calm Calm -- 30.05 in1017.6 mb - 0.00 in0.0 mm 0.00 in0.0 mm
07:00 AM 74.9°F23.8°C 74.3°F23.5°C 98% Calm Calm -- 30.05 in1017.6 mb - 0.00 in0.0 mm 0.00 in0.0 mm
07:15 AM 74.8°F23.8°C 74.2°F23.4°C 98% Calm Calm -- 30.05 in1017.6 mb - 0.00 in0.0 mm 0.00 in0.0 mm
07:30 AM 74.8°F23.8°C 74.2°F23.4°C 98% Calm Calm -- 30.06 in1017.9 mb - 0.00 in0.0 mm 0.00 in0.0 mm
07:45 AM 74.7°F23.7°C 74.1°F23.4°C 98% Calm Calm -- 30.07 in1018.3 mb - 0.00 in0.0 mm 0.00 in0.0 mm
08:00 AM 75.1°F23.9°C 74.2°F23.4°C 97% Calm Calm -- 30.07 in1018.3 mb - 0.00 in0.0 mm 0.00 in0.0 mm
08:15 AM 76.2°F24.6°C 74.3°F23.5°C 94% Calm Calm -- 30.06 in1017.9 mb - 0.00 in0.0 mm 0.00 in0.0 mm
08:30 AM 77.2°F25.1°C 74.7°F23.7°C 92% Calm Calm -- 30.06 in1017.9 mb - 0.00 in0.0 mm 0.00 in0.0 mm
08:45 AM 78.2°F25.7°C 74.7°F23.7°C 89% Calm Calm -- 30.06 in1017.9 mb - 0.00 in0.0 mm 0.00 in0.0 mm
09:00 AM 79.4°F26.3°C 75.5°F24.2°C 88% Calm Calm -- 30.06 in1017.9 mb - 0.00 in0.0 mm 0.00 in0.0 mm
09:15 AM 80.4°F26.9°C 76.2°F24.6°C 87% Calm Calm -- 30.06 in1017.9 mb - 0.00 in0.0 mm 0.00 in0.0 mm
09:30 AM 81.5°F27.5°C 76.9°F24.9°C 86% Calm Calm -- 30.06 in1017.9 mb - 0.00 in0.0 mm 0.00 in0.0 mm
09:45 AM 81.5°F27.5°C 76.6°F24.8°C 85% Calm Calm -- 30.06 in1017.9 mb - 0.00 in0.0 mm 0.00 in0.0 mm
10:00 AM 82.7°F28.2°C 77.0°F25.0°C 83% 1.2 mph S1.9 kmh S 2.3 mph3.7 kmh 30.06 in1017.9 mb - 0.00 in0.0 mm 0.00 in0.0 mm
10:15 AM 83.7°F28.7°C 77.2°F25.1°C 81% Calm Calm -- 30.06 in1017.9 mb - 0.00 in0.0 mm 0.00 in0.0 mm
10:30 AM 84.3°F29.1°C 77.8°F25.4°C 81% Calm Calm -- 30.06 in1017.9 mb - 0.00 in0.0 mm 0.00 in0.0 mm
10:45 AM 85.0°F29.4°C 77.8°F25.4°C 79% 2.3 mph NNW3.7 kmh NNW 3.5 mph5.6 kmh 30.06 in1017.9 mb - 0.00 in0.0 mm 0.00 in0.0 mm
11:00 AM 85.8°F29.9°C 78.5°F25.8°C 79% Calm Calm -- 30.06 in1017.9 mb - 0.00 in0.0 mm 0.00 in0.0 mm
11:15 AM 85.9°F29.9°C 78.2°F25.7°C 78% 3.5 mph S5.6 kmh S 5.8 mph9.3 kmh 30.06 in1017.9 mb - 0.00 in0.0 mm 0.00 in0.0 mm
11:30 AM 85.9°F29.9°C 77.9°F25.5°C 77% 1.2 mph S1.9 kmh S 2.3 mph3.7 kmh 30.07 in1018.3 mb - 0.00 in0.0 mm 0.00 in0.0 mm
11:45 AM 87.3°F30.7°C 78.8°F26.0°C 76% Calm Calm -- 30.06 in1017.9 mb - 0.00 in0.0 mm 0.00 in0.0 mm
12:00 PM 88.0°F31.1°C 80.3°F26.8°C 78% 2.3 mph WNW3.7 kmh WNW 3.5 mph5.6 kmh 30.06 in1017.9 mb - 0.00 in0.0 mm 0.00 in0.0 mm
12:15 PM 87.5°F30.8°C 80.1°F26.7°C 79% Calm Calm -- 30.06 in1017.9 mb - 0.00 in0.0 mm 0.00 in0.0 mm
12:30 PM 87.9°F31.1°C 79.0°F26.1°C 75% 3.5 mph SSE5.6 kmh SSE 4.6 mph7.4 kmh 30.06 in1017.9 mb - 0.00 in0.0 mm 0.00 in0.0 mm
12:45 PM 88.4°F31.3°C 79.4°F26.3°C 75% Calm Calm -- 30.05 in1017.6 mb - 0.00 in0.0 mm 0.00 in0.0 mm
01:00 PM 84.5°F29.2°C 78.0°F25.6°C 81% Calm Calm -- 30.06 in1017.9 mb - 0.00 in0.0 mm 0.00 in0.0 mm
01:15 PM 86.0°F30.0°C 77.6°F25.3°C 76% Calm Calm -- 30.05 in1017.6 mb - 0.00 in0.0 mm 0.00 in0.0 mm
01:30 PM 87.2°F30.7°C 78.3°F25.7°C 75% 1.2 mph E1.9 kmh E -- 30.05 in1017.6 mb - 0.00 in0.0 mm 0.00 in0.0 mm
01:45 PM 88.4°F31.3°C 78.6°F25.9°C 73% 2.3 mph NE3.7 kmh NE 3.5 mph5.6 kmh 30.04 in1017.3 mb - 0.00 in0.0 mm 0.00 in0.0 mm
02:00 PM 88.5°F31.4°C 79.5°F26.4°C 75% 5.8 mph S9.3 kmh S 6.9 mph11.1 kmh 30.04 in1017.3 mb - 0.00 in0.0 mm 0.00 in0.0 mm
02:15 PM 87.8°F31.0°C 79.7°F26.5°C 77% 5.8 mph SSE9.3 kmh SSE 10.4 mph16.7 kmh 30.03 in1016.9 mb - 0.00 in0.0 mm 0.00 in0.0 mm
02:30 PM 88.0°F31.1°C 77.0°F25.0°C 70% 4.6 mph S7.4 kmh S 8.1 mph13.0 kmh 30.04 in1017.3 mb - 0.00 in0.0 mm 0.00 in0.0 mm
02:45 PM 87.0°F30.6°C 73.3°F22.9°C 64% Calm Calm -- 30.04 in1017.3 mb - 0.00 in0.0 mm 0.00 in0.0 mm
03:00 PM 89.2°F31.8°C 76.4°F24.7°C 66% 3.5 mph SSE5.6 kmh SSE 5.8 mph9.3 kmh 30.04 in1017.3 mb - 0.00 in0.0 mm 0.00 in0.0 mm
03:15 PM 89.1°F31.7°C 72.9°F22.7°C 59% 3.5 mph SW5.6 kmh SW 5.8 mph9.3 kmh 30.03 in1016.9 mb - 0.00 in0.0 mm 0.00 in0.0 mm
03:30 PM 88.5°F31.4°C 76.1°F24.5°C 67% 9.2 mph S14.8 kmh S 11.5 mph18.5 kmh 30.03 in1016.9 mb - 0.00 in0.0 mm 0.00 in0.0 mm
03:45 PM 88.8°F31.6°C 77.7°F25.4°C 70% 6.9 mph SSE11.1 kmh SSE 11.5 mph18.5 kmh 30.03 in1016.9 mb - 0.00 in0.0 mm 0.00 in0.0 mm
04:00 PM 87.6°F30.9°C 78.7°F25.9°C 75% 4.6 mph S7.4 kmh S 10.4 mph16.7 kmh 30.02 in1016.6 mb - 0.00 in0.0 mm 0.00 in0.0 mm
04:15 PM 88.1°F31.2°C 79.2°F26.2°C 75% 8.1 mph S13.0 kmh S 9.2 mph14.8 kmh 30.03 in1016.9 mb - 0.00 in0.0 mm 0.00 in0.0 mm
04:30 PM 86.5°F30.3°C 78.8°F26.0°C 78% 4.6 mph SSE7.4 kmh SSE 5.8 mph9.3 kmh 30.03 in1016.9 mb - 0.00 in0.0 mm 0.00 in0.0 mm
04:45 PM 85.5°F29.7°C 76.7°F24.8°C 75% 5.8 mph S9.3 kmh S 9.2 mph14.8 kmh 30.02 in1016.6 mb - 0.00 in0.0 mm 0.00 in0.0 mm
05:00 PM 85.1°F29.5°C 75.0°F23.9°C 72% Calm Calm 1.2 mph1.9 kmh 30.03 in1016.9 mb - 0.00 in0.0 mm 0.00 in0.0 mm
05:15 PM 85.3°F29.6°C 76.9°F24.9°C 76% 2.3 mph SE3.7 kmh SE 4.6 mph7.4 kmh 30.03 in1016.9 mb - 0.00 in0.0 mm 0.00 in0.0 mm
05:30 PM 84.9°F29.4°C 77.7°F25.4°C 79% 1.2 mph E1.9 kmh E -- 30.03 in1016.9 mb - 0.00 in0.0 mm 0.00 in0.0 mm
05:45 PM 85.3°F29.6°C 77.7°F25.4°C 78% 2.3 mph ESE3.7 kmh ESE 2.3 mph3.7 kmh 30.03 in1016.9 mb - 0.00 in0.0 mm 0.00 in0.0 mm
06:00 PM 85.5°F29.7°C 77.4°F25.2°C 77% 3.5 mph SSE5.6 kmh SSE 5.8 mph9.3 kmh 30.02 in1016.6 mb - 0.00 in0.0 mm 0.00 in0.0 mm
06:15 PM 84.2°F29.0°C 77.0°F25.0°C 79% 2.3 mph SSE3.7 kmh SSE 3.5 mph5.6 kmh 30.02 in1016.6 mb - 0.00 in0.0 mm 0.00 in0.0 mm
06:30 PM 83.8°F28.8°C 76.6°F24.8°C 79% 1.2 mph SSE1.9 kmh SSE 3.5 mph5.6 kmh 30.02 in1016.6 mb - 0.00 in0.0 mm 0.00 in0.0 mm
06:45 PM 83.4°F28.6°C 76.6°F24.8°C 80% 1.2 mph SE1.9 kmh SE 2.3 mph3.7 kmh 30.02 in1016.6 mb - 0.00 in0.0 mm 0.00 in0.0 mm
07:00 PM 83.2°F28.4°C 76.4°F24.7°C 80% 5.8 mph S9.3 kmh S 9.2 mph14.8 kmh 30.02 in1016.6 mb - 0.00 in0.0 mm 0.00 in0.0 mm
07:15 PM 82.7°F28.2°C 75.9°F24.4°C 80% 2.3 mph SSE3.7 kmh SSE 5.8 mph9.3 kmh 30.03 in1016.9 mb - 0.00 in0.0 mm 0.00 in0.0 mm
07:30 PM 82.0°F27.8°C 75.9°F24.4°C 82% Calm Calm 2.3 mph3.7 kmh 30.04 in1017.3 mb - 0.00 in0.0 mm 0.00 in0.0 mm
07:45 PM 81.6°F27.6°C 75.9°F24.4°C 83% 1.2 mph S1.9 kmh S 3.5 mph5.6 kmh 30.04 in1017.3 mb - 0.00 in0.0 mm 0.00 in0.0 mm
08:00 PM 81.1°F27.3°C 76.2°F24.6°C 85% Calm Calm -- 30.03 in1016.9 mb - 0.00 in0.0 mm 0.00 in0.0 mm
08:15 PM 80.4°F26.9°C 76.2°F24.6°C 87% Calm Calm -- 30.04 in1017.3 mb - 0.00 in0.0 mm 0.00 in0.0 mm
08:30 PM 80.0°F26.7°C 76.1°F24.5°C 88% Calm Calm -- 30.05 in1017.6 mb - 0.00 in0.0 mm 0.00 in0.0 mm
08:45 PM 79.4°F26.3°C 75.8°F24.3°C 89% Calm Calm -- 30.05 in1017.6 mb - 0.00 in0.0 mm 0.00 in0.0 mm
09:00 PM 78.7°F25.9°C 75.8°F24.3°C 91% Calm Calm -- 30.06 in1017.9 mb - 0.00 in0.0 mm 0.00 in0.0 mm
09:15 PM 78.7°F25.9°C 75.9°F24.4°C 91% Calm Calm -- 30.07 in1018.3 mb - 0.00 in0.0 mm 0.00 in0.0 mm
09:30 PM 79.1°F26.2°C 76.3°F24.6°C 91% Calm Calm -- 30.07 in1018.3 mb - 0.00 in0.0 mm 0.00 in0.0 mm
09:45 PM 78.9°F26.1°C 76.4°F24.7°C 92% Calm Calm -- 30.08 in1018.6 mb - 0.00 in0.0 mm 0.00 in0.0 mm
10:00 PM 78.8°F26.0°C 75.6°F24.2°C 90% 2.3 mph NW3.7 kmh NW 4.6 mph7.4 kmh 30.09 in1019.0 mb - 0.00 in0.0 mm 0.00 in0.0 mm
10:15 PM 77.6°F25.3°C 71.7°F22.1°C 82% Calm Calm -- 30.09 in1019.0 mb - 0.00 in0.0 mm 0.00 in0.0 mm
10:30 PM 76.9°F24.9°C 70.6°F21.4°C 81% Calm Calm -- 30.09 in1019.0 mb - 0.00 in0.0 mm 0.00 in0.0 mm
10:45 PM 75.7°F24.3°C 70.9°F21.6°C 85% Calm Calm -- 30.09 in1019.0 mb - 0.00 in0.0 mm 0.00 in0.0 mm
11:00 PM 74.0°F23.3°C 70.5°F21.4°C 89% Calm Calm -- 30.09 in1019.0 mb - 0.01 in0.3 mm 0.01 in0.3 mm
11:15 PM 73.4°F23.0°C 71.2°F21.8°C 93% Calm Calm -- 30.09 in1019.0 mb - 0.01 in0.3 mm 0.02 in0.5 mm
11:30 PM 73.3°F22.9°C 71.5°F21.9°C 94% Calm Calm -- 30.08 in1018.6 mb - 0.01 in0.3 mm 0.03 in0.8 mm
11:45 PM 73.2°F22.9°C 71.7°F22.1°C 95% Calm Calm -- 30.08 in1018.6 mb - 0.00 in0.0 mm 0.03 in0.8 mm